EDDK/CGN METAR and TAF weather

Enter ICAO airport designator
Station Type Date Time Source
EDDK METAR 2021/05/14 06:20 UTC NOAA

EDDK 140620Z 18003KT 160V220 CAVOK 11/07 Q1007 NOSIG


Station Type Date Time Source
EDDK Decoded METAR 2021/05/14 06:20 UTC NOAA

Koeln / Bonn, Germany (EDDK) 50-52N 007-10E 100M
May 14, 2021 - 02:20 AM EDT / 2021.05.14 0620 UTC
Wind: from the S (180 degrees) at 3 MPH (3 KT) (direction variable):0
Visibility: greater than 7 mile(s):0
Temperature: 51 F (11 C)
Dew Point: 44 F (7 C)
Relative Humidity: 76%
Pressure (altimeter): 29.74 in. Hg (1007 hPa)
ob: EDDK 140620Z 18003KT 160V220 CAVOK 11/07 Q1007 NOSIG
cycle: 6

Station Type Date Time Source
EDDK TAF 2021/05/14 06:27 UTC NOAA

TAF EDDK 140500Z 1406/1512 15003KT 9999 SCT040
BECMG 1407/1410 25005KT PROB40
TEMPO 1414/1418 24015G25KT TSRA SCT020CB
BECMG 1418/1421 15004KT
BECMG 1507/1510 21008KT

Example: see airport list